METAR Data
IDs: Format: Raw Decoded Include TAF

Data at: 1302 UTC 16 Jul 2019

KATS 161255Z AUTO 13006KT 10SM FEW120 25/15 A3005 RMK AO2
KATS 161235Z AUTO 14007KT 10SM FEW120 25/15 A3004 RMK AO2
KATS 161215Z AUTO 15007KT 10SM CLR 25/14 A3003 RMK AO2
KATS 161155Z AUTO 15007KT 10SM CLR 25/14 A3002 RMK AO2
KATS 161135Z AUTO 16008KT 10SM CLR 25/13 A3002 RMK AO2
KATS 161115Z AUTO 17009KT 10SM CLR 25/12 A3001 RMK AO2
KATS 161055Z AUTO 17008KT 10SM CLR 25/12 A3001 RMK AO2
KATS 161035Z AUTO 16007KT 10SM CLR 25/12 A3000 RMK AO2
KATS 161015Z AUTO 16008KT 10SM CLR 25/12 A2999 RMK AO2
KATS 160955Z AUTO 10SM CLR 25/12 A2999 RMK AO2
KATS 160935Z AUTO 15007KT 10SM CLR 25/11 A2999 RMK AO2
KATS 160915Z AUTO 14008KT 10SM CLR 26/11 A3000 RMK AO2
KATS 160855Z AUTO 12005KT 10SM CLR 26/10 A3000 RMK AO2
KATS 160835Z AUTO 14006KT 10SM CLR 26/10 A3000 RMK AO2
KATS 160755Z AUTO 16010KT 10SM CLR 27/10 A3000 RMK AO2
KATS 160735Z AUTO 18007KT 10SM CLR 28/10 A3002 RMK AO2
KATS 160715Z AUTO 10SM CLR 28/10 A3003 RMK AO2
KATS 160655Z AUTO 10SM CLR 28/10 A3003 RMK AO2
KATS 160635Z AUTO 23007KT 10SM CLR 29/10 A3004 RMK AO2
KATS 160615Z AUTO 24008KT 10SM CLR 29/10 A3004 RMK AO2
KATS 160555Z AUTO 29009KT 10SM FEW120 28/10 A3004 RMK AO2 LTG DSNT NW
KATS 160535Z AUTO 20005KT 10SM CLR 27/10 A3002 RMK AO2 LTG DSNT NW
KATS 160515Z AUTO 19003KT 10SM VCTS CLR 28/10 A3002 RMK AO2 LTG DSNT NW
KATS 160455Z AUTO 16005KT 10SM VCTS CLR 28/10 A3001 RMK AO2 LTG DSNT NW
KATS 160435Z AUTO 15007KT 10SM CLR 29/10 A3000 RMK AO2 LTG DSNT NW
KATS 160415Z AUTO 16008KT 10SM CLR 30/10 A3000 RMK AO2
KATS 160355Z AUTO 16008KT 10SM CLR 30/10 A3000 RMK AO2
KATS 160335Z AUTO 15009KT 10SM CLR 31/10 A2999 RMK AO2
KATS 160315Z AUTO 16010KT 10SM CLR 31/10 A2999 RMK AO2
KATS 160255Z AUTO 16011KT 10SM CLR 32/10 A2998 RMK AO2
KATS 160235Z AUTO 16011KT 10SM CLR 32/10 A2997 RMK AO2
KATS 160215Z AUTO 15013KT 10SM CLR 33/10 A2997 RMK AO2
KATS 160155Z AUTO 15014KT 10SM CLR 34/10 A2996 RMK AO2
KATS 160135Z AUTO 15017KT 10SM CLR 34/10 A2996 RMK AO2
KATS 160115Z AUTO 15015KT 10SM CLR 35/10 A2996 RMK AO2
KATS 160055Z AUTO 16016KT 10SM CLR 35/10 A2996 RMK AO2
KATS 160035Z AUTO 16015KT 10SM CLR 35/10 A2996 RMK AO2
KATS 160015Z AUTO 17015KT 10SM CLR 36/10 A2996 RMK AO2
KATS 152355Z AUTO 16016KT 10SM CLR 37/10 A2996 RMK AO2
KATS 152335Z AUTO 16012G19KT 10SM CLR 36/09 A2996 RMK AO2
KATS 152315Z AUTO 17014G19KT 10SM CLR 37/08 A2996 RMK AO2
KATS 152255Z AUTO 15013G21KT 10SM CLR 37/07 A2997 RMK AO2
KATS 152235Z AUTO 16015G21KT 10SM CLR 37/07 A2998 RMK AO2
KATS 152215Z AUTO 17015G21KT 10SM CLR 37/08 A2998 RMK AO2
KATS 152155Z AUTO 15014KT 10SM CLR 37/08 A2998 RMK AO2
KATS 152135Z AUTO 12014G20KT 10SM CLR 37/08 A2999 RMK AO2
KATS 152115Z AUTO 14012G18KT 10SM CLR 37/09 A3000 RMK AO2
KATS 152055Z AUTO 15013G23KT 10SM CLR 36/09 A3001 RMK AO2
KATS 152035Z AUTO 16012G19KT 10SM CLR 36/09 A3002 RMK AO2
KATS 152015Z AUTO 14015G21KT 10SM CLR 36/08 A3002 RMK AO2
KATS 151955Z AUTO 15014G19KT 10SM CLR 36/08 A3003 RMK AO2
KATS 151935Z AUTO 15014G21KT 10SM CLR 36/08 A3004 RMK AO2
KATS 151915Z AUTO 14012G17KT 110V180 10SM CLR 35/10 A3004 RMK AO2
KATS 151855Z AUTO 12012G18KT 10SM CLR 34/11 A3005 RMK AO2
KATS 151835Z AUTO 13014G19KT 10SM CLR 34/11 A3006 RMK AO2
KATS 151815Z AUTO 12013KT 10SM CLR 34/11 A3006 RMK AO2
KATS 151755Z AUTO 14013KT 10SM CLR 33/11 A3006 RMK AO2
KATS 151735Z AUTO 14013KT 10SM CLR 34/11 A3006 RMK AO2
KATS 151715Z AUTO 17009G15KT 10SM CLR 33/11 A3007 RMK AO2
KATS 151655Z AUTO 17015KT 10SM CLR 32/11 A3008 RMK AO2
KATS 151635Z AUTO 16013G20KT 10SM CLR 32/12 A3008 RMK AO2
KATS 151615Z AUTO 16015G20KT 10SM CLR 32/12 A3009 RMK AO2
KATS 151555Z AUTO 17010KT 140V200 10SM CLR 31/11 A3009 RMK AO2
KATS 151535Z AUTO VRB05KT 10SM CLR 29/11 A3009 RMK AO2
KATS 151515Z AUTO VRB05KT 10SM CLR 29/11 A3010 RMK AO2
KATS 151455Z AUTO 17005KT 10SM CLR 27/11 A3010 RMK AO2
KATS 151435Z AUTO 00000KT 10SM CLR 26/11 A3011 RMK AO2
KATS 151415Z AUTO 00000KT 10SM CLR 24/11 A3011 RMK AO2
KATS 151355Z AUTO 32005KT 10SM CLR 23/11 A3012 RMK AO2
KATS 151335Z AUTO 35005KT 10SM CLR 23/11 A3011 RMK AO2
KATS 151315Z AUTO 33006KT 10SM CLR 22/10 A3011 RMK AO2
KATS 151255Z AUTO 00000KT 10SM CLR 21/10 A3010 RMK AO2
KATS 151235Z AUTO 00000KT 10SM CLR 20/09 A3010 RMK AO2
KATS 151215Z AUTO 07005KT 10SM CLR 21/10 A3010 RMK AO2
KATS 151155Z AUTO 00000KT 10SM CLR 21/08 A3010 RMK AO2
KATS 151135Z AUTO 07004KT 10SM CLR 22/08 A3009 RMK AO2
KATS 151115Z AUTO 00000KT 10SM CLR 22/08 A3009 RMK AO2
KATS 151055Z AUTO 25004KT 10SM CLR 21/08 A3009 RMK AO2
KATS 151035Z AUTO 26005KT 10SM CLR 21/09 A3009 RMK AO2
KATS 151015Z AUTO 27007KT 10SM CLR 21/09 A3009 RMK AO2
KATS 150955Z AUTO 24005KT 10SM CLR 21/09 A3009 RMK AO2
KATS 150935Z AUTO 19004KT 10SM CLR 21/09 A3008 RMK AO2
KATS 150915Z AUTO 16004KT 10SM CLR 22/10 A3008 RMK AO2
KATS 150855Z AUTO 16004KT 10SM CLR 23/10 A3009 RMK AO2
KATS 150835Z AUTO 16005KT 10SM CLR 23/10 A3009 RMK AO2
KATS 150815Z AUTO 15005KT 10SM CLR 23/10 A3009 RMK AO2
KATS 150755Z AUTO 17005KT 10SM CLR 24/10 A3009 RMK AO2
KATS 150735Z AUTO 17007KT 10SM CLR 24/10 A3009 RMK AO2
KATS 150715Z AUTO 18007KT 10SM CLR 25/09 A3009 RMK AO2
KATS 150655Z AUTO 18005KT 10SM CLR 24/09 A3010 RMK AO2
KATS 150635Z AUTO 17005KT 10SM CLR 25/09 A3009 RMK AO2
KATS 150615Z AUTO 18006KT 10SM CLR 25/09 A3009 RMK AO2
KATS 150555Z AUTO 18005KT 10SM CLR 25/09 A3009 RMK AO2
KATS 150535Z AUTO 14006KT 10SM CLR 26/09 A3009 RMK AO2
KATS 150515Z AUTO 14008KT 10SM CLR 27/09 A3008 RMK AO2
KATS 150455Z AUTO 15007KT 10SM CLR 27/09 A3008 RMK AO2
KATS 150435Z AUTO 16005KT 10SM CLR 28/10 A3008 RMK AO2
KATS 150415Z AUTO 15005KT 10SM CLR 28/10 A3008 RMK AO2
KATS 150355Z AUTO 14006KT 10SM CLR 29/10 A3007 RMK AO2
KATS 150335Z AUTO 15008KT 10SM CLR 30/10 A3006 RMK AO2
KATS 150315Z AUTO 13010KT 10SM CLR 31/10 A3005 RMK AO2
KATS 150255Z AUTO 13007KT 10SM CLR 32/10 A3004 RMK AO2
KATS 150235Z AUTO 12005KT 10SM CLR 32/10 A3004 RMK AO2
KATS 150215Z AUTO 10003KT 10SM CLR 33/09 A3003 RMK AO2
KATS 150155Z AUTO 11004KT 10SM CLR 34/09 A3003 RMK AO2
KATS 150135Z AUTO 13005KT 10SM CLR 34/10 A3003 RMK AO2
KATS 150115Z AUTO 13008KT 10SM CLR 34/10 A3002 RMK AO2